Time;durP1;ratioP1;P1;durP2;ratioP2;P2;SDS_P1;SDS_P2;PMS_P1;PMS_P2;Temp;Humidity;BMP_temperature;BMP_pressure;BME280_temperature;BME280_humidity;BME280_pressure;Samples;Min_cycle;Max_cycle;Signal;HPM_P1;HPM_P2
2022/07/18 00:02:04;;;;;;;3.47;1.20;;;17.40;99.90;;;;;;4937907;29;20213;-63
2022/07/18 00:04:31;;;;;;;2.53;1.40;;;17.40;99.90;;;;;;4937253;29;20209;-62
2022/07/18 00:06:58;;;;;;;4.90;1.27;;;17.40;99.90;;;;;;4937455;29;20213;-63
2022/07/18 00:09:25;;;;;;;3.40;1.87;;;17.30;99.90;;;;;;4937510;29;20683;-63
2022/07/18 00:11:52;;;;;;;6.17;1.43;;;17.30;99.90;;;;;;4937275;29;20317;-62
2022/07/18 00:14:20;;;;;;;4.90;1.53;;;17.30;99.90;;;;;;4937397;29;20214;-63
2022/07/18 00:16:47;;;;;;;4.00;1.53;;;17.20;99.90;;;;;;4936791;29;20212;-61
2022/07/18 00:19:15;;;;;;;4.57;1.40;;;17.20;99.90;;;;;;4937324;29;20716;-61
2022/07/18 00:21:42;;;;;;;3.33;1.40;;;17.10;99.90;;;;;;4937675;29;20212;-62
2022/07/18 00:24:08;;;;;;;3.97;1.00;;;17.20;99.90;;;;;;4937782;29;20571;-62
2022/07/18 00:26:35;;;;;;;4.23;1.47;;;17.20;99.90;;;;;;4937684;29;20221;-63
2022/07/18 00:29:02;;;;;;;3.33;1.30;;;17.10;99.90;;;;;;4936836;29;20229;-62
2022/07/18 00:31:28;;;;;;;3.83;1.30;;;17.10;99.90;;;;;;4936919;29;20205;-60
2022/07/18 00:33:55;;;;;;;5.17;1.30;;;17.10;99.90;;;;;;4936987;29;20213;-62
2022/07/18 00:36:23;;;;;;;4.13;1.10;;;17.10;99.90;;;;;;4936883;29;20205;-61
2022/07/18 00:38:50;;;;;;;1.37;1.10;;;17.20;99.90;;;;;;4936635;29;20233;-62
2022/07/18 00:41:17;;;;;;;2.20;1.47;;;17.10;99.90;;;;;;4936400;29;20744;-60
2022/07/18 00:43:44;;;;;;;2.23;1.40;;;17.20;99.90;;;;;;4936626;29;20261;-62
2022/07/18 00:46:11;;;;;;;4.83;1.20;;;17.10;99.90;;;;;;4936598;29;20217;-60
2022/07/18 00:48:38;;;;;;;2.43;1.10;;;17.10;99.90;;;;;;4936406;29;20262;-60
2022/07/18 00:51:05;;;;;;;5.53;1.40;;;17.10;99.90;;;;;;4936587;29;20233;-62
2022/07/18 00:53:34;;;;;;;3.87;1.00;;;17.20;99.90;;;;;;4936870;29;20218;-62
2022/07/18 00:56:03;;;;;;;8.07;1.00;;;17.20;99.90;;;;;;4936497;29;20275;-62
2022/07/18 00:58:30;;;;;;;3.90;1.57;;;17.20;99.90;;;;;;4936477;29;20233;-63
2022/07/18 01:03:41;;;;;;;4.77;1.20;;;17.10;99.90;;;;;;4936754;29;20200;-59
2022/07/18 01:06:08;;;;;;;3.20;1.43;;;17.10;99.90;;;;;;4936037;29;20680;-62
2022/07/18 01:08:37;;;;;;;2.77;1.10;;;17.10;99.90;;;;;;4936400;29;20234;-62
2022/07/18 01:11:04;;;;;;;1.87;1.00;;;17.10;99.90;;;;;;4936227;29;20317;-62
2022/07/18 01:13:31;;;;;;;2.10;1.00;;;17.10;99.90;;;;;;4936442;29;20281;-61
2022/07/18 01:15:57;;;;;;;2.20;1.20;;;17.10;99.90;;;;;;4936184;29;20205;-62
2022/07/18 01:18:24;;;;;;;2.17;1.00;;;17.10;99.90;;;;;;4936102;29;20206;-63
2022/07/18 01:20:52;;;;;;;1.63;1.07;;;17.00;99.90;;;;;;4936322;29;20606;-62
2022/07/18 01:23:19;;;;;;;3.50;1.30;;;17.00;99.90;;;;;;4936365;29;20214;-62
2022/07/18 01:25:45;;;;;;;1.77;1.03;;;17.00;99.90;;;;;;4935963;29;20253;-62
2022/07/18 01:28:12;;;;;;;1.20;0.90;;;16.90;99.90;;;;;;4935710;29;20228;-63
2022/07/18 01:30:39;;;;;;;4.60;1.27;;;16.90;99.90;;;;;;4935734;29;20237;-62
2022/07/18 01:33:06;;;;;;;2.10;1.33;;;16.90;99.90;;;;;;4936277;29;20213;-63
2022/07/18 01:35:33;;;;;;;3.77;1.30;;;16.90;99.90;;;;;;4935738;29;20209;-62
2022/07/18 01:38:03;;;;;;;4.40;1.20;;;16.90;99.90;;;;;;4935760;29;20206;-62
2022/07/18 01:40:30;;;;;;;2.83;1.40;;;16.80;99.90;;;;;;4935679;29;20229;-61
2022/07/18 01:42:57;;;;;;;3.27;1.63;;;16.80;99.90;;;;;;4935985;29;20327;-62
2022/07/18 01:45:24;;;;;;;4.07;1.20;;;16.70;99.90;;;;;;4936724;29;20213;-62
2022/07/18 01:47:51;;;;;;;4.90;1.70;;;16.60;99.90;;;;;;4936086;29;20266;-62
2022/07/18 01:50:18;;;;;;;2.80;1.40;;;16.60;99.90;;;;;;4936890;29;20229;-61
2022/07/18 01:52:45;;;;;;;3.47;1.27;;;16.50;99.90;;;;;;4935200;29;20259;-63
2022/07/18 01:55:13;;;;;;;3.87;1.23;;;16.40;99.90;;;;;;4935828;29;20217;-61
2022/07/18 01:57:40;;;;;;;2.50;1.53;;;16.40;99.90;;;;;;4935502;29;20265;-63
2022/07/18 02:00:10;;;;;;;2.13;1.30;;;16.30;99.90;;;;;;4935647;29;20233;-61
2022/07/18 02:02:37;;;;;;;5.13;1.10;;;16.20;99.90;;;;;;4935719;29;20205;-62
2022/07/18 02:05:04;;;;;;;6.30;1.73;;;16.20;99.90;;;;;;4935584;29;20210;-63
2022/07/18 02:07:33;;;;;;;3.87;1.30;;;16.10;99.90;;;;;;4935160;29;20766;-62
2022/07/18 02:10:00;;;;;;;2.90;1.30;;;16.10;99.90;;;;;;4935175;29;20234;-62
2022/07/18 02:12:28;;;;;;;2.93;1.60;;;16.00;99.90;;;;;;4935335;29;20205;-62
2022/07/18 02:14:55;;;;;;;3.83;1.60;;;16.00;99.90;;;;;;4934976;29;20684;-62
2022/07/18 02:17:22;;;;;;;2.10;1.20;;;15.90;99.90;;;;;;4934913;29;20268;-63
2022/07/18 02:19:49;;;;;;;2.90;1.30;;;15.80;99.90;;;;;;4935032;29;20717;-62
2022/07/18 02:22:16;;;;;;;2.80;1.40;;;15.70;99.90;;;;;;4935013;29;20249;-62
2022/07/18 02:24:43;;;;;;;6.50;1.57;;;15.70;99.90;;;;;;4935224;29;20209;-61
2022/07/18 02:27:10;;;;;;;3.43;1.37;;;15.60;99.90;;;;;;4934762;29;20277;-62
2022/07/18 02:29:38;;;;;;;2.60;1.30;;;15.50;99.90;;;;;;4934783;29;20713;-62
2022/07/18 02:32:05;;;;;;;2.87;1.33;;;15.50;99.90;;;;;;4934505;29;20732;-62
2022/07/18 02:34:32;;;;;;;2.90;1.43;;;15.50;99.90;;;;;;4935180;29;20213;-61
2022/07/18 02:36:58;;;;;;;4.00;1.40;;;15.40;99.90;;;;;;4934785;29;20217;-62
2022/07/18 02:39:25;;;;;;;2.10;1.40;;;15.40;99.90;;;;;;4935062;29;20259;-62
2022/07/18 02:41:52;;;;;;;2.10;1.13;;;15.40;99.90;;;;;;4935010;29;20235;-62
2022/07/18 02:44:19;;;;;;;2.53;1.10;;;15.40;99.90;;;;;;4934765;29;20221;-62
2022/07/18 02:46:47;;;;;;;2.97;1.20;;;15.30;99.90;;;;;;4934465;29;20210;-62
2022/07/18 02:49:26;;;;;;;2.37;1.10;;;15.30;99.90;;;;;;4934365;29;20661;-63
2022/07/18 02:51:53;;;;;;;1.60;1.00;;;15.30;99.90;;;;;;4934893;29;20700;-63
2022/07/18 02:54:20;;;;;;;2.97;1.30;;;15.30;99.90;;;;;;4934596;29;20216;-61
2022/07/18 02:56:47;;;;;;;3.50;1.10;;;15.30;99.90;;;;;;4934831;29;20632;-60
2022/07/18 02:59:13;;;;;;;2.23;1.50;;;15.30;99.90;;;;;;4934808;29;20594;-63
2022/07/18 03:01:40;;;;;;;1.70;0.97;;;15.40;99.90;;;;;;4934593;29;20205;-63
2022/07/18 03:04:08;;;;;;;3.33;1.20;;;15.40;99.90;;;;;;4934675;29;20205;-63
2022/07/18 03:06:34;;;;;;;5.73;1.23;;;15.40;99.90;;;;;;4937503;29;20269;-60
2022/07/18 03:09:01;;;;;;;2.53;1.50;;;15.50;99.90;;;;;;4938805;29;20288;-60
2022/07/18 03:11:28;;;;;;;2.93;1.27;;;15.50;99.90;;;;;;4938673;29;20226;-60
2022/07/18 03:13:54;;;;;;;2.03;1.13;;;15.50;99.90;;;;;;4938641;29;20657;-64
2022/07/18 03:16:21;;;;;;;4.23;1.30;;;15.50;99.90;;;;;;4938312;29;20217;-61
2022/07/18 03:18:48;;;;;;;1.87;1.10;;;15.60;99.90;;;;;;4937838;29;20233;-61
2022/07/18 03:21:16;;;;;;;1.57;0.80;;;15.60;99.90;;;;;;4938566;29;20252;-60
2022/07/18 03:23:42;;;;;;;1.20;0.90;;;15.60;99.90;;;;;;4938323;29;20206;-60
2022/07/18 03:26:09;;;;;;;3.80;1.20;;;15.60;99.90;;;;;;4938178;29;20276;-61
2022/07/18 03:28:35;;;;;;;3.00;1.23;;;15.60;99.90;;;;;;4937870;29;20229;-60
2022/07/18 03:31:03;;;;;;;3.23;1.30;;;15.70;99.90;;;;;;4938246;29;20285;-61
2022/07/18 03:33:30;;;;;;;5.07;1.03;;;15.80;99.90;;;;;;4938100;29;20300;-61
2022/07/18 03:35:57;;;;;;;2.23;1.10;;;15.80;99.90;;;;;;4937768;29;20217;-61
2022/07/18 03:38:25;;;;;;;1.23;1.00;;;15.90;99.90;;;;;;4937793;29;20241;-61
2022/07/18 03:40:52;;;;;;;4.53;1.10;;;15.90;99.90;;;;;;4938064;29;20205;-61
2022/07/18 03:43:19;;;;;;;3.40;1.00;;;16.00;99.90;;;;;;4937880;29;20257;-61
2022/07/18 03:45:45;;;;;;;2.00;1.00;;;16.10;99.90;;;;;;4937603;29;20268;-62
2022/07/18 03:48:12;;;;;;;4.10;1.20;;;16.10;99.90;;;;;;4937901;29;20245;-61
2022/07/18 03:50:39;;;;;;;1.40;1.00;;;16.20;99.90;;;;;;4937592;29;20222;-61
2022/07/18 03:53:05;;;;;;;2.53;1.20;;;16.20;99.90;;;;;;4938115;29;20210;-61
2022/07/18 03:55:33;;;;;;;2.87;1.10;;;16.30;99.90;;;;;;4937936;29;20265;-61
2022/07/18 03:58:00;;;;;;;3.57;1.20;;;16.40;99.90;;;;;;4937138;29;20213;-61
2022/07/18 04:00:27;;;;;;;2.80;1.10;;;16.50;99.90;;;;;;4937587;29;20226;-62
2022/07/18 04:02:53;;;;;;;2.43;1.40;;;16.60;99.90;;;;;;4937358;29;20829;-62
2022/07/18 04:05:20;;;;;;;5.00;1.50;;;16.60;99.90;;;;;;4937799;29;20194;-62
2022/07/18 04:07:47;;;;;;;2.00;0.90;;;16.60;99.90;;;;;;4937298;29;20272;-62
2022/07/18 04:10:14;;;;;;;3.60;1.53;;;16.60;99.90;;;;;;4937179;29;20229;-62
2022/07/18 04:12:49;;;;;;;2.53;1.20;;;16.70;99.90;;;;;;4937755;29;20209;-61
2022/07/18 04:15:17;;;;;;;2.13;1.20;;;16.70;99.90;;;;;;4937611;29;20221;-62
2022/07/18 04:17:43;;;;;;;2.20;1.17;;;16.80;99.90;;;;;;4937348;29;20630;-62
2022/07/18 04:20:11;;;;;;;2.60;1.40;;;16.90;99.90;;;;;;4937128;29;20594;-64
2022/07/18 04:22:48;;;;;;;2.43;1.00;;;16.90;99.90;;;;;;4937133;29;20748;-61
2022/07/18 04:25:16;;;;;;;3.23;1.30;;;16.90;99.90;;;;;;4936977;29;20736;-62
2022/07/18 04:27:42;;;;;;;3.97;1.30;;;17.00;99.90;;;;;;4936888;29;20273;-61
2022/07/18 04:30:11;;;;;;;3.77;1.20;;;17.00;99.90;;;;;;4937054;29;20281;-61
2022/07/18 04:32:38;;;;;;;2.13;1.13;;;17.00;99.90;;;;;;4937335;29;20212;-60
2022/07/18 04:35:06;;;;;;;3.07;1.43;;;17.10;99.90;;;;;;4936823;29;20265;-60
2022/07/18 04:37:33;;;;;;;3.93;1.30;;;17.20;99.90;;;;;;4936405;29;20205;-61
2022/07/18 04:40:00;;;;;;;1.50;1.03;;;17.40;99.90;;;;;;4937055;29;20317;-60
2022/07/18 04:42:27;;;;;;;4.00;1.40;;;17.70;99.90;;;;;;4936803;29;20210;-61
2022/07/18 04:44:54;;;;;;;1.67;1.13;;;17.90;99.90;;;;;;4937061;29;20712;-60
2022/07/18 04:47:22;;;;;;;3.67;1.00;;;18.10;99.90;;;;;;4934299;29;20787;-61
2022/07/18 04:49:49;;;;;;;3.90;1.13;;;18.30;99.90;;;;;;4946260;29;20229;-60
2022/07/18 04:52:15;;;;;;;4.00;1.20;;;18.30;99.90;;;;;;4955832;29;20233;-60
2022/07/18 04:54:42;;;;;;;3.40;1.20;;;18.40;99.90;;;;;;4944546;29;20268;-60
2022/07/18 04:57:11;;;;;;;3.93;2.00;;;18.50;99.90;;;;;;4935984;29;20822;-61
2022/07/18 04:59:37;;;;;;;4.33;1.73;;;18.50;99.90;;;;;;4935763;29;20305;-60
2022/07/18 05:02:04;;;;;;;2.10;1.00;;;18.60;99.90;;;;;;4936759;29;20205;-60
2022/07/18 05:04:32;;;;;;;2.57;1.50;;;18.70;99.90;;;;;;4935866;29;20356;-61
2022/07/18 05:06:59;;;;;;;2.17;1.30;;;18.80;99.90;;;;;;4936015;29;20636;-60
2022/07/18 05:09:26;;;;;;;3.17;1.07;;;18.80;99.90;;;;;;4936323;29;20233;-59
2022/07/18 05:11:53;;;;;;;5.23;1.27;;;18.90;99.90;;;;;;4935716;29;20743;-60
2022/07/18 05:14:20;;;;;;;4.07;1.33;;;18.80;99.90;;;;;;4936374;29;20265;-60
2022/07/18 05:16:47;;;;;;;2.97;1.30;;;18.90;99.90;;;;;;4935835;29;20210;-58
2022/07/18 05:19:15;;;;;;;4.50;1.60;;;19.10;99.90;;;;;;4936897;29;20229;-59
2022/07/18 05:21:43;;;;;;;2.20;1.20;;;19.10;99.90;;;;;;4936898;29;20833;-59
2022/07/18 05:24:10;;;;;;;2.57;1.27;;;19.20;99.90;;;;;;4936233;29;20209;-61
2022/07/18 05:26:36;;;;;;;2.33;1.03;;;19.20;99.90;;;;;;4935439;29;20273;-58
2022/07/18 05:29:03;;;;;;;2.50;1.20;;;19.30;99.90;;;;;;4937008;29;20221;-64
2022/07/18 05:31:30;;;;;;;1.20;1.10;;;19.40;99.90;;;;;;4943364;29;20236;-63
2022/07/18 05:33:57;;;;;;;2.10;1.30;;;19.50;99.90;;;;;;4935566;29;20217;-62
2022/07/18 05:36:23;;;;;;;2.50;1.33;;;19.60;99.90;;;;;;4935584;29;20276;-62
2022/07/18 05:38:51;;;;;;;8.23;1.27;;;19.60;99.90;;;;;;4934711;29;20229;-59
2022/07/18 05:41:18;;;;;;;4.20;1.30;;;19.50;99.90;;;;;;4935486;29;20214;-61
2022/07/18 05:43:44;;;;;;;2.20;0.93;;;19.50;99.90;;;;;;4935510;29;20214;-60
2022/07/18 05:46:11;;;;;;;2.03;0.97;;;19.50;99.90;;;;;;4934676;29;20210;-60
2022/07/18 05:48:38;;;;;;;3.30;1.40;;;19.60;99.90;;;;;;4935322;29;20289;-60
2022/07/18 05:51:07;;;;;;;3.77;1.50;;;19.60;99.90;;;;;;4934994;29;20646;-60
2022/07/18 05:53:34;;;;;;;6.07;1.43;;;19.60;99.90;;;;;;4935261;29;20218;-61
2022/07/18 05:56:02;;;;;;;1.97;1.00;;;19.60;99.90;;;;;;4934975;29;20636;-61
2022/07/18 05:58:28;;;;;;;3.40;1.20;;;19.60;99.90;;;;;;4934794;29;20230;-64
2022/07/18 06:00:55;;;;;;;2.73;1.20;;;19.60;99.90;;;;;;4932476;29;20232;-63
2022/07/18 06:03:22;;;;;;;2.17;1.17;;;19.70;99.90;;;;;;4939369;29;20676;-63
2022/07/18 06:05:48;;;;;;;2.53;1.20;;;19.70;99.90;;;;;;4951286;29;20239;-66
2022/07/18 06:08:16;;;;;;;3.77;1.10;;;19.80;99.90;;;;;;4953432;29;20351;-64
2022/07/18 06:10:42;;;;;;;4.20;1.00;;;19.90;99.90;;;;;;4937488;29;20695;-59
2022/07/18 06:13:10;;;;;;;2.53;1.30;;;19.90;99.90;;;;;;4934134;29;20265;-60
2022/07/18 06:15:37;;;;;;;5.50;0.90;;;20.00;99.90;;;;;;4934029;29;20209;-59
2022/07/18 06:18:04;;;;;;;3.40;1.03;;;20.00;99.90;;;;;;4934225;29;20582;-59
2022/07/18 06:20:31;;;;;;;2.30;1.00;;;20.10;99.90;;;;;;4934020;29;20238;-60
2022/07/18 06:22:58;;;;;;;1.67;1.03;;;20.20;99.90;;;;;;4934796;29;20261;-60
2022/07/18 06:25:24;;;;;;;1.57;1.10;;;20.30;99.90;;;;;;4934492;29;20213;-61
2022/07/18 06:27:51;;;;;;;1.60;1.00;;;20.40;99.90;;;;;;4933526;29;20225;-60
2022/07/18 06:30:19;;;;;;;3.37;1.30;;;20.40;99.90;;;;;;4934084;29;20739;-63
2022/07/18 06:32:46;;;;;;;1.63;0.90;;;20.50;99.90;;;;;;4933840;29;20610;-64
2022/07/18 06:35:12;;;;;;;2.87;1.00;;;20.60;99.90;;;;;;4934581;29;20210;-62
2022/07/18 06:37:39;;;;;;;4.60;1.20;;;20.70;99.90;;;;;;4934360;29;20209;-63
2022/07/18 06:40:07;;;;;;;2.73;1.10;;;20.90;99.90;;;;;;4932851;29;20284;-62
2022/07/18 06:42:34;;;;;;;2.20;1.43;;;21.00;99.90;;;;;;4933970;29;20717;-61
2022/07/18 06:45:01;;;;;;;2.67;1.03;;;21.20;99.90;;;;;;4933904;29;20213;-63
2022/07/18 06:47:29;;;;;;;7.90;1.20;;;21.30;99.90;;;;;;4934140;29;20248;-63
2022/07/18 06:49:55;;;;;;;3.20;1.10;;;21.40;99.90;;;;;;4933866;29;20652;-63
2022/07/18 06:52:22;;;;;;;2.40;1.10;;;21.50;99.90;;;;;;4933851;29;20284;-62
2022/07/18 06:54:49;;;;;;;3.63;1.67;;;21.60;99.90;;;;;;4933790;29;20676;-61
2022/07/18 06:57:15;;;;;;;3.03;1.10;;;21.80;99.90;;;;;;4933626;29;20221;-61
2022/07/18 06:59:42;;;;;;;3.47;1.17;;;22.00;99.90;;;;;;4934035;29;20229;-65
2022/07/18 07:02:09;;;;;;;2.93;1.00;;;22.20;99.90;;;;;;4933571;29;20214;-61
2022/07/18 07:04:37;;;;;;;2.10;0.80;;;22.30;99.90;;;;;;4933451;29;20265;-62
2022/07/18 07:07:04;;;;;;;4.23;1.40;;;22.50;99.90;;;;;;4933807;29;20705;-62
2022/07/18 07:09:30;;;;;;;3.13;0.97;;;22.60;99.90;;;;;;4933175;29;20724;-62
2022/07/18 07:11:57;;;;;;;1.53;0.90;;;22.80;99.90;;;;;;4933829;29;20285;-61
2022/07/18 07:14:24;;;;;;;2.90;1.07;;;22.90;99.90;;;;;;4933592;29;20206;-61
2022/07/18 07:16:50;;;;;;;3.17;1.10;;;23.00;99.90;;;;;;4933721;29;20205;-61
2022/07/18 07:19:17;;;;;;;2.07;1.10;;;23.10;99.90;;;;;;4934087;29;20292;-62
2022/07/18 07:21:45;;;;;;;2.13;1.00;;;23.20;99.90;;;;;;4933356;29;20676;-62
2022/07/18 07:24:11;;;;;;;2.53;1.20;;;23.20;99.90;;;;;;4933472;29;20743;-63
2022/07/18 07:26:38;;;;;;;6.23;1.20;;;23.40;99.90;;;;;;4933020;29;20281;-62
2022/07/18 07:29:05;;;;;;;2.50;1.10;;;23.50;99.90;;;;;;4933551;29;20226;-62
2022/07/18 07:31:31;;;;;;;5.17;1.03;;;23.70;99.90;;;;;;4933951;29;20237;-62
2022/07/18 07:33:58;;;;;;;3.50;1.00;;;23.80;99.90;;;;;;4932940;29;20214;-61
2022/07/18 07:36:25;;;;;;;2.60;1.10;;;24.00;99.90;;;;;;4933427;29;20209;-63
2022/07/18 07:38:54;;;;;;;1.70;0.90;;;24.20;99.90;;;;;;4933006;29;20269;-64
2022/07/18 07:41:20;;;;;;;1.80;0.90;;;24.40;99.90;;;;;;4933515;29;20225;-65
2022/07/18 07:43:47;;;;;;;2.10;0.90;;;24.60;99.90;;;;;;4933311;29;20217;-63
2022/07/18 07:46:14;;;;;;;5.73;1.10;;;24.70;99.90;;;;;;4932791;29;20740;-65
2022/07/18 07:48:40;;;;;;;1.87;0.90;;;24.80;99.90;;;;;;4933448;29;20230;-65
2022/07/18 07:51:07;;;;;;;3.90;1.00;;;24.90;99.90;;;;;;4933413;29;20209;-66
2022/07/18 07:53:34;;;;;;;3.27;1.13;;;25.20;99.90;;;;;;4937059;29;20265;-64
2022/07/18 07:56:02;;;;;;;3.07;1.20;;;25.30;99.90;;;;;;4937096;29;20210;-67
2022/07/18 07:58:29;;;;;;;3.07;1.20;;;25.50;99.90;;;;;;4936963;29;20240;-69
2022/07/18 08:00:56;;;;;;;4.40;1.10;;;25.70;99.90;;;;;;4936930;29;20568;-66
2022/07/18 08:03:22;;;;;;;5.27;1.10;;;25.90;99.90;;;;;;4936374;29;20624;-60
2022/07/18 08:05:50;;;;;;;2.53;0.90;;;26.10;99.90;;;;;;4936788;29;20627;-65
2022/07/18 08:08:18;;;;;;;1.80;0.90;;;26.30;99.90;;;;;;4936580;29;20217;-64
2022/07/18 08:10:46;;;;;;;3.33;1.07;;;26.50;99.90;;;;;;4936802;29;20213;-62
2022/07/18 08:13:14;;;;;;;2.60;1.10;;;26.60;99.90;;;;;;4936560;29;20233;-61
2022/07/18 08:15:41;;;;;;;3.30;1.00;;;26.80;99.90;;;;;;4936372;29;20209;-62
2022/07/18 08:18:08;;;;;;;2.03;1.00;;;26.80;99.90;;;;;;4936213;29;20217;-62
2022/07/18 08:20:35;;;;;;;3.37;1.07;;;26.80;99.90;;;;;;4936605;29;20253;-66
2022/07/18 08:23:03;;;;;;;2.60;0.80;;;26.90;99.90;;;;;;4936181;29;20792;-63
2022/07/18 08:25:32;;;;;;;2.57;0.87;;;27.00;99.90;;;;;;4936542;29;20216;-64
2022/07/18 08:28:00;;;;;;;1.43;0.80;;;27.00;99.90;;;;;;4935912;29;20218;-65
2022/07/18 08:30:29;;;;;;;2.30;1.00;;;27.20;99.90;;;;;;4948052;29;20240;-64
2022/07/18 08:32:56;;;;;;;1.57;0.87;;;27.00;99.90;;;;;;4954328;29;20229;-66
2022/07/18 08:35:23;;;;;;;3.57;1.00;;;27.20;99.90;;;;;;4955758;29;20213;-63
2022/07/18 08:37:49;;;;;;;2.07;1.10;;;27.40;99.90;;;;;;4955234;29;20260;-65
2022/07/18 08:40:17;;;;;;;3.87;1.07;;;27.50;99.90;;;;;;4955643;29;20718;-65
2022/07/18 08:42:43;;;;;;;2.80;1.00;;;27.60;99.90;;;;;;4955522;29;20209;-63
2022/07/18 08:45:11;;;;;;;2.33;0.93;;;27.70;99.90;;;;;;4955024;29;20268;-66
2022/07/18 08:47:39;;;;;;;4.43;1.00;;;27.80;99.90;;;;;;4955037;29;20213;-61
2022/07/18 08:50:07;;;;;;;3.73;0.80;;;27.90;99.90;;;;;;4957111;29;20369;-60
2022/07/18 08:52:35;;;;;;;1.57;1.00;;;28.00;99.90;;;;;;4957175;29;20229;-60
2022/07/18 08:55:03;;;;;;;1.50;1.00;;;28.00;99.90;;;;;;4957722;29;20236;-60
2022/07/18 08:57:30;;;;;;;1.97;1.10;;;28.00;99.90;;;;;;4954290;29;20315;-60
2022/07/18 08:59:56;;;;;;;1.83;1.23;;;28.00;99.90;;;;;;4954832;29;20590;-62
2022/07/18 09:02:25;;;;;;;1.83;0.80;;;28.10;99.90;;;;;;4953607;28;20615;-63
2022/07/18 09:04:54;;;;;;;3.80;0.93;;;28.30;99.90;;;;;;4954100;29;20216;-62
2022/07/18 09:07:25;;;;;;;2.77;0.90;;;28.40;99.90;;;;;;4954298;29;20213;-63
2022/07/18 09:09:54;;;;;;;2.00;0.60;;;28.40;99.90;;;;;;4954535;29;20233;-66
2022/07/18 09:12:21;;;;;;;2.03;1.00;;;28.50;99.90;;;;;;4953553;29;20256;-62
2022/07/18 09:14:48;;;;;;;2.97;0.80;;;28.30;99.90;;;;;;4953873;29;20221;-62
2022/07/18 09:17:18;;;;;;;1.67;0.90;;;28.50;99.90;;;;;;4954967;29;20213;-63
2022/07/18 09:20:01;;;;;;;3.83;0.83;;;28.60;99.90;;;;;;4954494;29;20325;-63
2022/07/18 09:22:29;;;;;;;1.50;0.70;;;28.70;99.90;;;;;;4954651;29;20225;-62
2022/07/18 09:24:59;;;;;;;2.50;0.90;;;28.80;99.90;;;;;;4954174;29;20743;-66
2022/07/18 09:27:31;;;;;;;1.30;0.90;;;28.90;99.90;;;;;;4953667;29;20220;-68
2022/07/18 09:30:24;;;;;;;1.40;0.90;;;29.00;99.90;;;;;;4954757;29;20229;-66
2022/07/18 09:32:52;;;;;;;1.80;1.03;;;29.20;99.90;;;;;;4927742;29;20233;-65
2022/07/18 09:35:22;;;;;;;3.17;1.10;;;29.20;99.90;;;;;;4934896;29;20210;-65
2022/07/18 09:38:01;;;;;;;2.00;1.10;;;29.30;99.90;;;;;;4934613;29;20720;-63
2022/07/18 09:40:30;;;;;;;4.20;0.90;;;29.30;99.90;;;;;;4935152;29;20920;-62
2022/07/18 09:42:59;;;;;;;4.47;0.97;;;29.40;99.90;;;;;;4934678;29;20209;-63
2022/07/18 09:45:27;;;;;;;1.40;0.87;;;29.50;99.90;;;;;;4934793;29;20217;-63
2022/07/18 09:47:56;;;;;;;2.20;1.10;;;29.60;99.90;;;;;;4947069;29;20636;-63
2022/07/18 09:50:30;;;;;;;2.83;1.07;;;29.50;99.90;;;;;;4953894;29;20318;-63
2022/07/18 09:53:05;;;;;;;3.07;1.07;;;29.40;99.90;;;;;;4953681;29;20237;-64
2022/07/18 09:55:33;;;;;;;3.37;1.10;;;29.40;99.90;;;;;;4954558;29;20656;-63
2022/07/18 09:58:02;;;;;;;2.90;0.97;;;29.40;99.90;;;;;;4953555;29;20255;-64
2022/07/18 10:00:31;;;;;;;5.77;0.93;;;29.40;99.90;;;;;;4953971;29;20236;-61
2022/07/18 10:03:00;;;;;;;2.07;1.10;;;29.40;99.90;;;;;;4953425;29;20576;-62
2022/07/18 10:05:30;;;;;;;3.90;1.17;;;29.60;99.90;;;;;;4954738;29;20220;-66
2022/07/18 10:07:58;;;;;;;2.40;1.00;;;29.80;99.90;;;;;;4953357;29;20287;-63
2022/07/18 10:10:25;;;;;;;3.13;1.15;;;30.00;99.90;;;;;;4953567;29;20236;-65
2022/07/18 10:12:54;;;;;;;3.67;1.05;;;30.20;99.90;;;;;;4952900;29;20252;-65
2022/07/18 10:15:23;;;;;;;2.30;1.17;;;30.40;99.90;;;;;;4953411;28;20216;-64
2022/07/18 10:17:50;;;;;;;3.63;1.23;;;30.50;99.90;;;;;;4953585;29;20213;-64
2022/07/18 10:20:17;;;;;;;2.72;1.10;;;30.50;99.90;;;;;;4953338;29;20366;-63
2022/07/18 10:22:46;;;;;;;1.52;1.00;;;30.50;99.90;;;;;;4953427;29;20201;-66
2022/07/18 10:25:14;;;;;;;2.90;1.17;;;30.50;99.90;;;;;;4953239;29;20679;-63
2022/07/18 10:27:52;;;;;;;1.60;1.10;;;30.70;99.90;;;;;;4952658;29;20220;-65
2022/07/18 10:30:31;;;;;;;1.40;1.10;;;30.60;99.90;;;;;;4953313;29;20641;-63
2022/07/18 10:32:58;;;;;;;2.80;1.30;;;30.50;99.90;;;;;;4935287;29;20363;-62
2022/07/18 10:35:57;;;;;;;2.88;1.25;;;30.50;99.90;;;;;;4934275;29;20265;-62
2022/07/18 10:38:25;;;;;;;3.45;1.25;;;30.60;99.90;;;;;;4926911;29;20571;-62
2022/07/18 10:41:12;;;;;;;1.88;1.05;;;30.70;99.90;;;;;;4934582;29;20609;-62
2022/07/18 10:43:44;;;;;;;2.65;1.00;;;31.00;99.90;;;;;;4933623;29;20269;-64
2022/07/18 10:46:12;;;;;;;2.30;1.20;;;30.80;99.90;;;;;;4933753;29;20216;-65
2022/07/18 10:48:56;;;;;;;4.50;1.30;;;30.90;99.90;;;;;;4934193;29;20293;-65
2022/07/18 10:51:33;;;;;;;2.53;1.05;;;31.00;99.90;;;;;;4934057;29;20299;-64
2022/07/18 10:54:12;;;;;;;4.72;1.10;;;30.80;99.90;;;;;;4933767;29;20225;-65
2022/07/18 10:57:08;;;;;;;3.05;1.23;;;30.70;99.90;;;;;;4933126;29;20296;-64
2022/07/18 10:59:36;;;;;;;2.65;1.10;;;30.70;99.90;;;;;;4933887;29;20225;-66
2022/07/18 11:02:06;;;;;;;3.20;1.10;;;30.90;99.90;;;;;;4933790;29;20261;-63
2022/07/18 11:04:36;;;;;;;2.88;1.10;;;31.10;99.90;;;;;;4933649;29;20210;-63
2022/07/18 11:07:11;;;;;;;2.00;1.23;;;31.00;99.90;;;;;;4933432;29;20297;-63
2022/07/18 11:09:42;;;;;;;2.97;1.05;;;31.10;99.90;;;;;;4933880;29;20445;-62
2022/07/18 11:12:30;;;;;;;1.17;0.95;;;31.10;99.90;;;;;;4933981;29;20217;-64
2022/07/18 11:15:06;;;;;;;1.88;0.95;;;31.20;99.90;;;;;;4928669;29;20210;-65
2022/07/18 11:17:58;;;;;;;2.10;1.02;;;31.30;99.90;;;;;;4933444;29;20264;-66
2022/07/18 11:20:27;;;;;;;1.90;1.00;;;31.40;99.90;;;;;;4930609;29;20240;-65
2022/07/18 11:22:54;;;;;;;2.67;1.15;;;31.40;99.90;;;;;;4933716;29;20264;-66
2022/07/18 11:25:26;;;;;;;2.22;1.33;;;30.90;99.90;;;;;;4933614;29;20213;-65
2022/07/18 11:27:53;;;;;;;2.10;1.20;;;30.70;99.90;;;;;;4936915;29;20327;-64
2022/07/18 11:30:20;;;;;;;2.97;1.17;;;30.50;99.90;;;;;;4937767;29;20238;-63
2022/07/18 11:32:47;;;;;;;2.13;1.10;;;30.70;99.90;;;;;;4936965;29;20640;-64
2022/07/18 11:35:14;;;;;;;2.10;1.15;;;31.00;99.90;;;;;;4937469;29;20214;-64
2022/07/18 11:37:47;;;;;;;3.47;1.30;;;31.10;99.90;;;;;;4936799;29;20493;-64
2022/07/18 11:40:15;;;;;;;2.33;1.05;;;31.30;99.90;;;;;;4937371;29;20230;-64
2022/07/18 11:42:43;;;;;;;2.78;1.20;;;31.50;99.90;;;;;;4936884;29;20217;-64
2022/07/18 11:45:12;;;;;;;2.30;1.10;;;31.70;99.90;;;;;;4937254;29;20206;-64
2022/07/18 11:47:39;;;;;;;3.30;1.30;;;31.70;99.90;;;;;;4936827;29;20214;-63
2022/07/18 11:50:07;;;;;;;2.55;1.27;;;31.50;99.90;;;;;;4936947;29;20229;-64
2022/07/18 11:52:34;;;;;;;3.55;1.20;;;31.40;99.90;;;;;;4936653;29;20629;-64
2022/07/18 11:55:04;;;;;;;2.17;1.00;;;31.50;99.90;;;;;;4936395;29;20213;-63
2022/07/18 11:57:32;;;;;;;2.45;1.50;;;31.50;99.90;;;;;;4936954;29;20206;-66
2022/07/18 12:00:01;;;;;;;5.30;1.60;;;31.50;99.90;;;;;;4937200;29;20285;-67
2022/07/18 12:02:28;;;;;;;3.63;1.42;;;31.70;99.90;;;;;;4936606;29;20224;-67
2022/07/18 12:04:55;;;;;;;4.53;1.50;;;31.50;99.90;;;;;;4936824;29;20245;-67
2022/07/18 12:07:25;;;;;;;5.80;1.38;;;31.40;99.90;;;;;;4936124;29;20272;-62
2022/07/18 12:09:53;;;;;;;6.57;1.35;;;31.60;99.90;;;;;;4936591;29;20225;-63
2022/07/18 12:12:21;;;;;;;3.17;1.30;;;31.80;99.90;;;;;;4936441;29;20724;-63
2022/07/18 12:15:01;;;;;;;7.10;1.55;;;31.90;99.90;;;;;;4936354;29;20238;-62
2022/07/18 12:17:29;;;;;;;2.78;1.60;;;32.00;99.90;;;;;;4936612;29;20601;-63
2022/07/18 12:20:12;;;;;;;1.90;1.20;;;32.00;99.90;;;;;;4936034;29;20237;-64
2022/07/18 12:23:11;;;;;;;3.45;1.40;;;32.00;99.90;;;;;;4936571;29;20213;-64
2022/07/18 12:25:57;;;;;;;1.92;1.20;;;32.20;99.90;;;;;;4936065;29;20240;-62
2022/07/18 12:28:26;;;;;;;3.00;1.27;;;32.30;99.90;;;;;;4936345;29;20305;-64
2022/07/18 12:30:53;;;;;;;2.88;1.60;;;32.40;99.90;;;;;;4936128;29;20209;-63
2022/07/18 12:33:20;;;;;;;3.03;1.58;;;32.60;99.90;;;;;;4936603;29;20830;-64
2022/07/18 12:35:46;;;;;;;2.08;1.30;;;32.20;99.90;;;;;;4936202;29;20237;-64
2022/07/18 12:38:16;;;;;;;3.40;1.42;;;32.30;99.90;;;;;;4935664;29;20213;-64
2022/07/18 12:40:46;;;;;;;2.08;1.40;;;32.40;99.90;;;;;;4936475;29;20217;-64
2022/07/18 12:43:15;;;;;;;4.90;1.20;;;32.40;99.90;;;;;;4936017;29;20213;-62
2022/07/18 12:45:42;;;;;;;2.47;1.48;;;32.40;99.90;;;;;;4936211;29;20263;-63
2022/07/18 12:48:11;;;;;;;3.75;1.42;;;32.40;99.90;;;;;;4935738;29;20213;-63
2022/07/18 12:50:39;;;;;;;3.60;1.38;;;32.70;99.90;;;;;;4935878;29;20214;-66
2022/07/18 12:53:06;;;;;;;3.58;1.40;;;32.80;99.90;;;;;;4935783;29;20233;-67
2022/07/18 12:55:34;;;;;;;3.80;1.27;;;32.70;99.90;;;;;;4935680;29;20594;-65
2022/07/18 12:58:01;;;;;;;3.22;1.98;;;32.80;99.90;;;;;;4935909;29;20257;-65